createdAt,value
2019-05-21T00:00:03.921Z,13.10
2019-05-21T00:02:30.093Z,13.20
2019-05-21T00:04:56.216Z,13.20
2019-05-21T00:07:22.564Z,13.30
2019-05-21T00:09:48.793Z,13.10
2019-05-21T00:12:15.211Z,13.20
2019-05-21T00:14:41.407Z,13.10
2019-05-21T00:17:07.551Z,13.10
2019-05-21T00:19:33.879Z,13.20
2019-05-21T00:22:00.083Z,13.20
2019-05-21T00:24:26.370Z,13.10
2019-05-21T00:26:52.756Z,13.20
2019-05-21T00:29:56.189Z,13.30
2019-05-21T00:32:59.824Z,13.20
2019-05-21T00:36:03.928Z,13.30
2019-05-21T00:39:07.777Z,13.20
2019-05-21T00:41:58.912Z,13.10
2019-05-21T00:44:25.732Z,13.10
2019-05-21T00:46:51.986Z,13.20
2019-05-21T00:49:18.494Z,13.20
2019-05-21T00:51:45.027Z,13.20
2019-05-21T00:54:11.154Z,13.20
2019-05-21T00:56:37.519Z,13.10
2019-05-21T00:59:03.678Z,13.10
2019-05-21T01:01:30.160Z,13.20
2019-05-21T01:03:56.561Z,13.40
2019-05-21T01:06:22.704Z,13.20
2019-05-21T01:08:48.837Z,13.10
2019-05-21T01:11:15.088Z,13.20
2019-05-21T01:13:41.206Z,13.20
2019-05-21T01:16:07.512Z,13.20
2019-05-21T01:18:33.802Z,13.20
2019-05-21T01:20:59.976Z,13.10
2019-05-21T01:23:26.094Z,13.10
2019-05-21T01:25:53.126Z,13.20
2019-05-21T01:28:19.392Z,13.10
2019-05-21T01:30:45.810Z,13.00
2019-05-21T01:33:12.055Z,13.00
2019-05-21T01:35:38.558Z,12.90
2019-05-21T01:38:04.679Z,12.90
2019-05-21T01:40:30.826Z,13.00
2019-05-21T01:42:57.209Z,13.00
2019-05-21T01:45:24.509Z,12.90
2019-05-21T01:47:50.934Z,13.00
2019-05-21T01:50:17.358Z,13.00
2019-05-21T01:52:43.629Z,12.70
2019-05-21T01:55:09.853Z,12.70
2019-05-21T01:57:36.211Z,13.00
2019-05-21T02:00:05.439Z,12.90
2019-05-21T02:02:31.617Z,13.00
2019-05-21T02:04:57.780Z,13.00
2019-05-21T02:07:23.920Z,13.00
2019-05-21T02:09:59.199Z,12.90
2019-05-21T02:12:26.424Z,12.90
2019-05-21T02:14:52.542Z,12.80
2019-05-21T02:17:18.751Z,12.80
2019-05-21T02:19:45.237Z,12.80
2019-05-21T02:22:11.380Z,12.80
2019-05-21T02:24:37.509Z,12.90
2019-05-21T02:27:03.774Z,12.70
2019-05-21T02:29:29.923Z,12.90
2019-05-21T02:31:56.265Z,12.80
2019-05-21T02:34:22.462Z,12.80
2019-05-21T02:36:48.724Z,12.60
2019-05-21T02:39:15.052Z,12.60
2019-05-21T02:41:41.168Z,12.50
2019-05-21T02:44:07.788Z,12.60
2019-05-21T02:46:34.151Z,12.60
2019-05-21T02:49:00.495Z,12.50
2019-05-21T02:51:26.722Z,12.60
2019-05-21T02:53:53.085Z,12.80
2019-05-21T02:56:19.224Z,12.70
2019-05-21T02:58:45.420Z,12.80
2019-05-21T03:01:17.893Z,12.60
2019-05-21T03:03:44.755Z,12.80
2019-05-21T03:06:14.290Z,12.90
2019-05-21T03:08:39.343Z,12.80
2019-05-21T03:11:05.479Z,12.80
2019-05-21T03:13:31.642Z,12.80
2019-05-21T03:15:58.198Z,12.90
2019-05-21T03:18:24.458Z,12.70
2019-05-21T03:20:50.696Z,12.70
2019-05-21T03:23:17.107Z,12.70
2019-05-21T03:25:43.448Z,12.70
2019-05-21T03:28:11.344Z,12.80
2019-05-21T03:30:37.521Z,12.70
2019-05-21T03:33:03.843Z,12.80
2019-05-21T03:35:44.697Z,12.60
2019-05-21T03:38:11.417Z,12.70
2019-05-21T03:40:37.712Z,12.70
2019-05-21T03:43:04.117Z,12.80
2019-05-21T03:45:30.464Z,12.60
2019-05-21T03:47:56.694Z,12.70
2019-05-21T03:50:22.853Z,12.60
2019-05-21T03:52:49.172Z,12.60
2019-05-21T03:55:15.658Z,12.60
2019-05-21T03:57:41.928Z,12.70
2019-05-21T04:00:09.672Z,12.70
2019-05-21T04:02:35.789Z,12.70
2019-05-21T04:05:04.668Z,12.80
2019-05-21T04:07:31.040Z,12.80
2019-05-21T04:09:57.321Z,12.80
2019-05-21T04:12:23.573Z,12.90
2019-05-21T04:14:54.819Z,12.70
2019-05-21T04:17:24.342Z,12.80
2019-05-21T04:19:51.753Z,12.80
2019-05-21T04:22:18.434Z,12.70
2019-05-21T04:24:44.848Z,12.70
2019-05-21T04:27:13.437Z,12.50
2019-05-21T04:29:39.968Z,12.70
2019-05-21T04:32:06.237Z,12.50
2019-05-21T04:34:32.515Z,12.50
2019-05-21T04:37:09.841Z,12.70
2019-05-21T04:39:27.122Z,12.60
2019-05-21T04:41:53.347Z,12.70
2019-05-21T04:44:19.573Z,12.80
2019-05-21T04:46:45.741Z,12.80
2019-05-21T04:49:12.056Z,12.80
2019-05-21T04:51:38.308Z,12.60
2019-05-21T04:54:04.458Z,12.40
2019-05-21T04:56:30.820Z,12.70
2019-05-21T04:58:57.298Z,12.70
2019-05-21T05:01:23.427Z,12.70
2019-05-21T05:03:55.812Z,12.70
2019-05-21T05:06:22.113Z,12.50
2019-05-21T05:08:48.613Z,12.50
2019-05-21T05:11:14.821Z,12.50
2019-05-21T05:13:41.440Z,12.70
2019-05-21T05:16:07.709Z,12.60
2019-05-21T05:18:34.369Z,12.60
2019-05-21T05:21:00.696Z,12.50
2019-05-21T05:23:27.140Z,12.70
2019-05-21T05:25:53.393Z,12.80
2019-05-21T05:28:19.963Z,12.80
2019-05-21T05:30:46.095Z,12.90
2019-05-21T05:33:12.274Z,12.90
2019-05-21T05:35:38.519Z,12.90
2019-05-21T05:38:05.102Z,13.00
2019-05-21T05:40:31.388Z,12.80
2019-05-21T05:42:57.618Z,12.90
2019-05-21T05:45:24.069Z,12.90
2019-05-21T05:47:50.549Z,12.90
2019-05-21T05:50:27.789Z,12.70
2019-05-21T05:52:54.091Z,12.80
2019-05-21T05:55:20.450Z,12.70
2019-05-21T05:57:46.896Z,12.80
2019-05-21T06:00:14.730Z,12.80
2019-05-21T06:02:41.271Z,12.50
2019-05-21T06:05:07.870Z,12.70
2019-05-21T06:07:34.126Z,12.70
2019-05-21T06:10:00.406Z,12.80
2019-05-21T06:12:27.122Z,12.80
2019-05-21T06:14:53.274Z,12.70
2019-05-21T06:17:19.417Z,12.90
2019-05-21T06:19:45.891Z,12.70
2019-05-21T06:22:12.373Z,12.70
2019-05-21T06:24:39.772Z,12.80
2019-05-21T06:27:06.183Z,12.60
2019-05-21T06:29:32.431Z,12.50
2019-05-21T06:31:58.767Z,12.60
2019-05-21T06:34:25.153Z,12.60
2019-05-21T06:36:51.605Z,12.30
2019-05-21T06:39:17.867Z,12.40
2019-05-21T06:41:44.167Z,12.50
2019-05-21T06:44:11.767Z,12.50
2019-05-21T06:46:38.147Z,12.70
2019-05-21T06:49:04.473Z,12.70
2019-05-21T06:51:30.820Z,12.70
2019-05-21T06:53:57.179Z,12.70
2019-05-21T06:56:23.459Z,12.60
2019-05-21T06:58:49.817Z,12.50
2019-05-21T07:01:16.583Z,12.60
2019-05-21T07:03:42.699Z,12.60
2019-05-21T07:06:09.111Z,12.60
2019-05-21T07:08:35.459Z,12.50
2019-05-21T07:11:02.223Z,12.50
2019-05-21T07:13:31.001Z,12.60
2019-05-21T07:15:56.840Z,12.30
2019-05-21T07:18:23.272Z,12.40
2019-05-21T07:20:49.700Z,12.50
2019-05-21T07:23:15.801Z,12.20
2019-05-21T07:25:41.964Z,12.30
2019-05-21T07:28:08.573Z,12.40
2019-05-21T07:30:34.947Z,12.50
2019-05-21T07:33:01.540Z,12.50
2019-05-21T07:35:27.934Z,12.60
2019-05-21T07:37:54.191Z,12.50
2019-05-21T07:40:20.517Z,12.40
2019-05-21T07:42:47.060Z,12.50
2019-05-21T07:45:13.579Z,12.50
2019-05-21T07:47:40.072Z,12.50
2019-05-21T07:50:06.415Z,12.50
2019-05-21T07:52:32.721Z,12.40
2019-05-21T07:54:59.154Z,12.50
2019-05-21T07:57:25.580Z,12.40
2019-05-21T07:59:51.812Z,12.50
2019-05-21T08:02:18.052Z,12.40
2019-05-21T08:04:44.462Z,12.50
2019-05-21T08:07:10.949Z,12.50
2019-05-21T08:09:37.081Z,12.60
2019-05-21T08:12:22.798Z,12.60
2019-05-21T08:14:31.829Z,12.70
2019-05-21T08:16:58.082Z,12.50
2019-05-21T08:19:24.514Z,12.60
2019-05-21T08:21:50.619Z,12.80
2019-05-21T08:24:16.871Z,12.70
2019-05-21T08:26:43.312Z,12.80
2019-05-21T08:29:09.569Z,12.70
2019-05-21T08:31:35.699Z,12.70
2019-05-21T08:34:02.087Z,12.70
2019-05-21T08:36:28.466Z,12.90
2019-05-21T08:38:54.727Z,13.10
2019-05-21T08:41:20.973Z,12.90
2019-05-21T08:43:47.430Z,12.80
2019-05-21T08:46:15.260Z,12.90
2019-05-21T08:48:41.630Z,12.70
2019-05-21T08:51:07.934Z,13.00
2019-05-21T08:53:34.127Z,13.00
2019-05-21T08:56:00.604Z,13.00
2019-05-21T08:58:26.907Z,13.00
2019-05-21T09:00:53.212Z,13.00
2019-05-21T09:03:19.593Z,13.00
2019-05-21T09:05:45.967Z,13.20
2019-05-21T09:08:12.457Z,13.10
2019-05-21T09:10:40.389Z,13.10
2019-05-21T09:13:06.812Z,13.20
2019-05-21T09:15:33.083Z,13.20
2019-05-21T09:17:59.287Z,13.30
2019-05-21T09:20:25.714Z,13.50
2019-05-21T09:22:52.357Z,13.60
2019-05-21T09:25:18.522Z,13.30
2019-05-21T09:27:44.673Z,13.50
2019-05-21T09:30:11.736Z,13.50
2019-05-21T09:32:37.995Z,13.50
2019-05-21T09:35:05.763Z,13.60
2019-05-21T09:37:32.108Z,13.50
2019-05-21T09:39:58.569Z,13.60
2019-05-21T09:45:07.799Z,13.70
2019-05-21T09:47:34.168Z,13.70
2019-05-21T09:50:00.770Z,13.60
2019-05-21T09:52:27.043Z,13.60
2019-05-21T09:54:54.581Z,13.70
2019-05-21T09:57:25.352Z,13.60
2019-05-21T09:59:59.186Z,13.60
2019-05-21T10:02:27.256Z,13.70
2019-05-21T10:04:53.481Z,13.80
2019-05-21T10:07:36.334Z,13.40
2019-05-21T10:09:48.399Z,13.60
2019-05-21T10:12:14.798Z,13.60
2019-05-21T10:14:40.941Z,13.70
2019-05-21T10:17:07.275Z,13.50
2019-05-21T10:19:33.426Z,13.90
2019-05-21T10:21:59.936Z,13.90
2019-05-21T10:24:26.206Z,14.10
2019-05-21T10:26:52.564Z,14.00
2019-05-21T10:29:19.139Z,14.00
2019-05-21T10:31:45.609Z,14.00
2019-05-21T10:34:13.498Z,14.20
2019-05-21T10:36:40.242Z,14.40
2019-05-21T10:39:06.809Z,14.10
2019-05-21T10:41:33.396Z,14.00
2019-05-21T10:43:59.627Z,14.00
2019-05-21T10:46:25.755Z,14.10
2019-05-21T10:48:52.345Z,14.20
2019-05-21T10:51:18.830Z,14.10
2019-05-21T10:53:45.225Z,13.70
2019-05-21T10:56:11.335Z,14.20
2019-05-21T10:58:37.710Z,14.10
2019-05-21T11:01:08.880Z,13.80
2019-05-21T11:03:36.934Z,13.50
2019-05-21T11:06:10.194Z,13.80
2019-05-21T11:08:33.112Z,14.10
2019-05-21T11:10:59.319Z,14.10
2019-05-21T11:13:25.666Z,14.00
2019-05-21T11:15:51.794Z,14.00
2019-05-21T11:18:18.447Z,13.80
2019-05-21T11:20:45.028Z,14.00
2019-05-21T11:23:11.380Z,14.30
2019-05-21T11:25:37.612Z,14.20
2019-05-21T11:28:06.196Z,14.20
2019-05-21T11:30:32.349Z,14.20
2019-05-21T11:32:58.848Z,14.30
2019-05-21T11:35:25.485Z,14.50
2019-05-21T11:37:51.639Z,14.50
2019-05-21T11:40:19.004Z,14.60
2019-05-21T11:42:45.406Z,13.80
2019-05-21T11:45:29.438Z,14.20
2019-05-21T11:47:41.773Z,13.80
2019-05-21T11:50:08.549Z,13.70
2019-05-21T11:52:34.924Z,14.10
2019-05-21T11:55:01.340Z,14.00
2019-05-21T11:57:27.756Z,13.90
2019-05-21T11:59:54.118Z,14.00
2019-05-21T12:02:20.372Z,14.10
2019-05-21T12:04:47.001Z,14.00
2019-05-21T12:07:13.124Z,14.10
2019-05-21T12:09:39.897Z,13.70
2019-05-21T12:12:06.458Z,13.80
2019-05-21T12:14:32.704Z,13.80
2019-05-21T12:16:58.925Z,14.00
2019-05-21T12:19:25.302Z,13.70
2019-05-21T12:21:51.512Z,13.40
2019-05-21T12:24:17.715Z,13.40
2019-05-21T12:26:44.085Z,13.70
2019-05-21T12:29:10.732Z,13.90
2019-05-21T12:31:36.990Z,14.10
2019-05-21T12:34:03.639Z,14.00
2019-05-21T12:36:29.829Z,13.90
2019-05-21T12:39:11.608Z,14.10
2019-05-21T12:41:24.387Z,13.60
2019-05-21T12:43:50.596Z,13.70
2019-05-21T12:46:16.836Z,13.80
2019-05-21T12:48:43.120Z,13.50
2019-05-21T12:51:09.251Z,13.50
2019-05-21T12:53:36.084Z,13.30
2019-05-21T12:56:03.645Z,13.70
2019-05-21T12:58:29.767Z,13.90
2019-05-21T13:00:55.933Z,13.40
2019-05-21T13:03:22.198Z,13.40
2019-05-21T13:05:49.622Z,13.80
2019-05-21T13:08:15.832Z,13.60
2019-05-21T13:10:43.247Z,13.60
2019-05-21T13:13:09.725Z,13.80
2019-05-21T13:15:36.235Z,14.00
2019-05-21T13:18:03.216Z,13.80
2019-05-21T13:20:29.688Z,13.80
2019-05-21T13:22:55.843Z,13.80
2019-05-21T13:25:22.083Z,13.70
2019-05-21T13:27:48.633Z,13.70
2019-05-21T13:30:15.151Z,13.50
2019-05-21T13:32:43.797Z,13.70
2019-05-21T13:35:09.550Z,13.10
2019-05-21T13:37:35.877Z,12.90
2019-05-21T13:40:05.364Z,13.50
2019-05-21T13:42:31.622Z,13.60
2019-05-21T13:44:57.778Z,13.40
2019-05-21T13:47:24.032Z,13.60
2019-05-21T13:49:50.300Z,13.70
2019-05-21T13:52:16.710Z,13.90
2019-05-21T13:54:42.821Z,13.80
2019-05-21T13:57:08.954Z,13.70
2019-05-21T13:59:35.392Z,13.70
2019-05-21T14:02:01.878Z,13.80
2019-05-21T14:04:28.213Z,13.80
2019-05-21T14:06:54.947Z,13.20
2019-05-21T14:09:21.563Z,13.40
2019-05-21T14:11:48.321Z,13.80
2019-05-21T14:14:14.583Z,14.10
2019-05-21T14:16:41.221Z,13.80
2019-05-21T14:19:07.472Z,13.50
2019-05-21T14:21:34.442Z,13.10
2019-05-21T14:24:00.728Z,13.60
2019-05-21T14:26:27.137Z,13.70
2019-05-21T14:28:53.273Z,14.00
2019-05-21T14:31:19.522Z,14.00
2019-05-21T14:33:46.830Z,13.70
2019-05-21T14:36:13.361Z,13.70
2019-05-21T14:38:39.610Z,13.50
2019-05-21T14:41:06.027Z,13.40
2019-05-21T14:43:32.142Z,13.50
2019-05-21T14:45:58.698Z,13.30
2019-05-21T14:48:25.594Z,13.40
2019-05-21T14:50:52.256Z,13.60
2019-05-21T14:53:18.753Z,13.40
2019-05-21T14:55:44.966Z,13.10
2019-05-21T14:58:11.195Z,13.30
2019-05-21T15:00:37.904Z,13.60
2019-05-21T15:03:04.428Z,13.30
2019-05-21T15:05:31.889Z,13.40
2019-05-21T15:07:58.414Z,13.70
2019-05-21T15:10:25.393Z,13.80
2019-05-21T15:12:51.525Z,13.40
2019-05-21T15:15:17.981Z,13.60
2019-05-21T15:17:44.393Z,13.60
2019-05-21T15:20:16.557Z,13.80
2019-05-21T15:22:42.987Z,13.80
2019-05-21T15:25:11.169Z,13.80
2019-05-21T15:27:37.555Z,13.50
2019-05-21T15:30:05.685Z,13.00
2019-05-21T15:32:32.077Z,13.00
2019-05-21T15:34:58.319Z,13.40
2019-05-21T15:37:24.833Z,13.40
2019-05-21T15:39:51.198Z,13.20
2019-05-21T15:42:17.542Z,13.20
2019-05-21T15:44:44.117Z,13.00
2019-05-21T15:47:10.526Z,12.80
2019-05-21T15:49:37.215Z,12.90
2019-05-21T15:52:03.902Z,13.40
2019-05-21T15:54:30.161Z,13.30
2019-05-21T15:56:57.008Z,12.80
2019-05-21T15:59:23.210Z,13.00
2019-05-21T16:01:49.593Z,13.20
2019-05-21T16:04:16.843Z,13.30
2019-05-21T16:06:43.723Z,12.90
2019-05-21T16:09:10.389Z,13.10
2019-05-21T16:11:37.956Z,13.00
2019-05-21T16:14:04.328Z,12.80
2019-05-21T16:16:30.582Z,13.00
2019-05-21T16:18:57.153Z,13.00
2019-05-21T16:21:23.302Z,13.00
2019-05-21T16:23:49.682Z,13.00
2019-05-21T16:26:16.328Z,12.90
2019-05-21T16:28:42.598Z,12.60
2019-05-21T16:31:10.044Z,12.80
2019-05-21T16:33:56.434Z,12.80
2019-05-21T16:36:25.020Z,13.00
2019-05-21T16:38:52.246Z,12.60
2019-05-21T16:41:18.753Z,12.90
2019-05-21T16:43:45.256Z,12.90
2019-05-21T16:46:11.914Z,13.10
2019-05-21T16:48:38.166Z,13.00
2019-05-21T16:51:04.876Z,13.20
2019-05-21T16:53:31.232Z,12.60
2019-05-21T16:55:57.901Z,12.90
2019-05-21T16:58:24.163Z,12.70
2019-05-21T17:00:50.729Z,12.90
2019-05-21T17:03:17.235Z,12.80
2019-05-21T17:05:43.631Z,12.60
2019-05-21T17:08:09.859Z,12.90
2019-05-21T17:10:36.062Z,12.80
2019-05-21T17:13:22.167Z,12.70
2019-05-21T17:15:48.440Z,12.60
2019-05-21T17:18:14.994Z,12.60
2019-05-21T17:20:41.161Z,12.80
2019-05-21T17:23:07.585Z,12.90
2019-05-21T17:25:33.884Z,13.00
2019-05-21T17:28:00.415Z,12.70
2019-05-21T17:30:26.584Z,12.60
2019-05-21T17:32:52.824Z,12.70
2019-05-21T17:35:19.299Z,12.80
2019-05-21T17:37:45.625Z,12.70
2019-05-21T17:40:12.319Z,12.50
2019-05-21T17:42:38.646Z,12.90
2019-05-21T17:45:07.264Z,13.00
2019-05-21T17:47:33.634Z,12.90
2019-05-21T17:50:00.017Z,12.80
2019-05-21T17:52:26.758Z,13.60
2019-05-21T17:54:56.691Z,13.60
2019-05-21T17:57:21.468Z,13.60
2019-05-21T17:59:47.809Z,14.50
2019-05-21T18:02:15.464Z,14.80
2019-05-21T18:04:42.543Z,14.30
2019-05-21T18:07:10.168Z,13.70
2019-05-21T18:09:37.215Z,13.40
2019-05-21T18:12:04.516Z,13.50
2019-05-21T18:14:31.054Z,13.10
2019-05-21T18:16:57.972Z,13.20
2019-05-21T18:19:24.915Z,13.40
2019-05-21T18:21:51.767Z,13.20
2019-05-21T18:24:59.066Z,14.10
2019-05-21T18:27:28.687Z,14.40
2019-05-21T18:29:55.622Z,14.60
2019-05-21T18:32:22.455Z,14.50
2019-05-21T18:34:49.496Z,14.40
2019-05-21T18:37:16.584Z,14.90
2019-05-21T18:39:43.601Z,14.80
2019-05-21T18:42:21.910Z,15.00
2019-05-21T18:44:38.848Z,15.00
2019-05-21T18:47:05.747Z,14.80
2019-05-21T18:49:32.115Z,14.70
2019-05-21T18:52:18.477Z,14.80
2019-05-21T18:54:47.808Z,14.30
2019-05-21T18:57:13.835Z,14.90
2019-05-21T18:59:40.244Z,15.00
2019-05-21T19:02:07.316Z,14.60
2019-05-21T19:04:36.408Z,14.50
2019-05-21T19:07:02.145Z,14.20
2019-05-21T19:09:29.029Z,13.40
2019-05-21T19:11:55.949Z,13.50
2019-05-21T19:14:22.271Z,13.50
2019-05-21T19:16:48.767Z,13.70
2019-05-21T19:19:15.664Z,13.00
2019-05-21T19:21:42.442Z,12.70
2019-05-21T19:24:09.818Z,12.80
2019-05-21T19:26:55.792Z,12.60
2019-05-21T19:29:22.468Z,12.70
2019-05-21T19:31:49.370Z,12.40
2019-05-21T19:34:16.332Z,12.40
2019-05-21T19:36:43.034Z,12.30
2019-05-21T19:39:09.782Z,12.50
2019-05-21T19:41:36.593Z,12.40
2019-05-21T19:44:21.786Z,12.50
2019-05-21T19:46:48.083Z,12.70
2019-05-21T19:49:14.612Z,12.60
2019-05-21T19:51:40.900Z,12.50
2019-05-21T19:54:07.515Z,12.70
2019-05-21T19:56:36.420Z,12.80
2019-05-21T19:59:02.103Z,13.00
2019-05-21T20:01:28.432Z,12.60
2019-05-21T20:03:54.874Z,12.80
2019-05-21T20:06:22.694Z,12.50
2019-05-21T20:08:49.133Z,12.70
2019-05-21T20:11:17.730Z,12.90
2019-05-21T20:13:44.134Z,13.00
2019-05-21T20:16:10.901Z,13.10
2019-05-21T20:18:37.538Z,13.00
2019-05-21T20:21:05.689Z,13.10
2019-05-21T20:23:33.965Z,13.30
2019-05-21T20:26:00.682Z,13.20
2019-05-21T20:28:27.341Z,13.00
2019-05-21T20:30:53.856Z,13.00
2019-05-21T20:33:20.762Z,12.20
2019-05-21T20:35:48.446Z,12.50
2019-05-21T20:38:17.154Z,12.50
2019-05-21T20:40:43.434Z,12.60
2019-05-21T20:43:11.664Z,12.30
2019-05-21T20:45:40.140Z,12.30
2019-05-21T20:48:06.516Z,12.40
2019-05-21T20:50:33.413Z,12.50
2019-05-21T20:53:00.492Z,12.50
2019-05-21T20:55:27.091Z,12.30
2019-05-21T20:57:54.589Z,12.00
2019-05-21T21:00:40.130Z,12.00
2019-05-21T21:03:10.393Z,11.90
2019-05-21T21:05:37.157Z,11.80
2019-05-21T21:08:04.120Z,11.70
2019-05-21T21:10:30.609Z,11.80
2019-05-21T21:12:58.076Z,11.90
2019-05-21T21:15:24.530Z,11.80
2019-05-21T21:17:51.591Z,12.10
2019-05-21T21:20:17.907Z,12.10
2019-05-21T21:22:44.521Z,12.00
2019-05-21T21:25:11.881Z,11.80
2019-05-21T21:27:38.476Z,12.20
2019-05-21T21:30:07.109Z,11.90
2019-05-21T21:32:33.881Z,11.90
2019-05-21T21:35:00.277Z,12.10
2019-05-21T21:37:26.746Z,12.00
2019-05-21T21:39:53.279Z,12.20
2019-05-21T21:42:19.849Z,11.90
2019-05-21T21:44:46.416Z,11.80
2019-05-21T21:47:15.151Z,11.90
2019-05-21T21:49:42.135Z,12.00
2019-05-21T21:52:09.168Z,12.10
2019-05-21T21:54:36.033Z,12.20
2019-05-21T21:57:04.325Z,12.00
2019-05-21T21:59:30.585Z,12.10
2019-05-21T22:02:04.895Z,12.20
2019-05-21T22:04:32.245Z,12.00
2019-05-21T22:06:59.026Z,11.70
2019-05-21T22:09:27.085Z,11.90
2019-05-21T22:11:54.689Z,12.20
2019-05-21T22:14:21.890Z,12.10
2019-05-21T22:16:51.578Z,12.10
2019-05-21T22:19:18.061Z,12.00
2019-05-21T22:21:44.354Z,11.90
2019-05-21T22:24:11.920Z,12.10
2019-05-21T22:26:38.596Z,12.30
2019-05-21T22:29:05.193Z,12.10
2019-05-21T22:31:32.823Z,11.90
2019-05-21T22:33:59.034Z,12.10
2019-05-21T22:36:25.752Z,12.40
2019-05-21T22:38:52.268Z,12.30
2019-05-21T22:41:18.573Z,12.50
2019-05-21T22:43:44.920Z,12.40
2019-05-21T22:46:11.184Z,12.40
2019-05-21T22:48:38.928Z,12.10
2019-05-21T22:51:05.310Z,12.30
2019-05-21T22:53:31.468Z,12.10
2019-05-21T22:55:57.752Z,11.90
2019-05-21T22:58:23.990Z,11.80
2019-05-21T23:00:51.040Z,12.00
2019-05-21T23:03:17.601Z,12.00
2019-05-21T23:05:43.859Z,12.10
2019-05-21T23:08:10.287Z,11.90
2019-05-21T23:10:37.053Z,11.90
2019-05-21T23:13:03.376Z,12.00
2019-05-21T23:15:29.995Z,12.00
2019-05-21T23:17:56.721Z,12.10
2019-05-21T23:20:25.071Z,12.20
2019-05-21T23:22:53.684Z,12.10
2019-05-21T23:25:25.148Z,12.10
2019-05-21T23:27:52.243Z,12.30
2019-05-21T23:30:18.957Z,12.30
2019-05-21T23:32:45.162Z,12.40
2019-05-21T23:35:13.823Z,12.40
2019-05-21T23:37:42.221Z,12.60
2019-05-21T23:40:10.847Z,12.60
2019-05-21T23:42:39.014Z,12.40
2019-05-21T23:45:07.742Z,12.10
2019-05-21T23:47:34.154Z,11.90
2019-05-21T23:50:00.377Z,12.10
2019-05-21T23:52:27.339Z,12.30
2019-05-21T23:54:53.611Z,12.00
2019-05-21T23:57:22.337Z,12.40
2019-05-21T23:59:49.363Z,12.40
